sensor_id;sensor_type;location;lat;lon;timestamp;pressure;altitude;pressure_sealevel;temperature;humidity
76331;BME280;65148;51.912;15.570;2023-09-19T00:13:50;100726.05;;;18.24;100.00
76331;BME280;65148;51.912;15.570;2023-09-19T00:28:54;100715.27;;;18.31;100.00
76331;BME280;65148;51.912;15.570;2023-09-19T00:43:57;100738.54;;;18.21;100.00
76331;BME280;65148;51.912;15.570;2023-09-19T00:59:13;100712.48;;;17.98;100.00
76331;BME280;65148;51.912;15.570;2023-09-19T02:00:10;100695.30;;;17.80;100.00
76331;BME280;65148;51.912;15.570;2023-09-19T02:15:12;100688.58;;;17.69;100.00
76331;BME280;65148;51.912;15.570;2023-09-19T02:30:35;100689.34;;;17.49;100.00
76331;BME280;65148;51.912;15.570;2023-09-19T02:45:37;100693.41;;;17.43;100.00
76331;BME280;65148;51.912;15.570;2023-09-19T03:00:38;100695.99;;;17.48;100.00
76331;BME280;65148;51.912;15.570;2023-09-19T03:15:43;100691.20;;;17.36;100.00
76331;BME280;65148;51.912;15.570;2023-09-19T03:31:04;100693.20;;;17.27;100.00
76331;BME280;65148;51.912;15.570;2023-09-19T03:46:05;100693.09;;;17.15;100.00
76331;BME280;65148;51.912;15.570;2023-09-19T04:01:07;100699.52;;;17.28;100.00
76331;BME280;65148;51.912;15.570;2023-09-19T04:16:09;100707.61;;;17.24;100.00
76331;BME280;65148;51.912;15.570;2023-09-19T04:31:25;100730.64;;;17.20;100.00
76331;BME280;65148;51.912;15.570;2023-09-19T04:46:26;100734.95;;;17.29;100.00
76331;BME280;65148;51.912;15.570;2023-09-19T05:01:27;100746.45;;;17.23;100.00
76331;BME280;65148;51.912;15.570;2023-09-19T05:16:28;100755.68;;;17.27;100.00
76331;BME280;65148;51.912;15.570;2023-09-19T05:31:47;100768.78;;;17.30;100.00
76331;BME280;65148;51.912;15.570;2023-09-19T05:46:47;100779.30;;;17.28;100.00
76331;BME280;65148;51.912;15.570;2023-09-19T06:01:48;100805.31;;;17.39;100.00
76331;BME280;65148;51.912;15.570;2023-09-19T06:16:50;100824.91;;;17.37;100.00
76331;BME280;65148;51.912;15.570;2023-09-19T06:32:09;100844.18;;;17.75;100.00
76331;BME280;65148;51.912;15.570;2023-09-19T06:47:10;100874.73;;;17.91;100.00
76331;BME280;65148;51.912;15.570;2023-09-19T07:02:11;100899.29;;;18.05;100.00
76331;BME280;65148;51.912;15.570;2023-09-19T07:17:14;100933.42;;;17.83;100.00
76331;BME280;65148;51.912;15.570;2023-09-19T07:32:31;100940.14;;;18.03;100.00
76331;BME280;65148;51.912;15.570;2023-09-19T07:47:32;100951.74;;;18.17;100.00
76331;BME280;65148;51.912;15.570;2023-09-19T08:02:37;100954.67;;;18.12;100.00
76331;BME280;65148;51.912;15.570;2023-09-19T08:17:40;100962.99;;;18.62;100.00
76331;BME280;65148;51.912;15.570;2023-09-19T08:32:59;100972.28;;;19.20;100.00
76331;BME280;65148;51.912;15.570;2023-09-19T09:03:16;101001.66;;;19.37;100.00
76331;BME280;65148;51.912;15.570;2023-09-19T09:18:34;101024.98;;;19.27;100.00
76331;BME280;65148;51.912;15.570;2023-09-19T09:37:21;101049.95;;;19.30;100.00
76331;BME280;65148;51.912;15.570;2023-09-19T09:52:30;101063.50;;;19.65;100.00
76331;BME280;65148;51.912;15.570;2023-09-19T10:23:13;101037.18;;;20.73;100.00
76331;BME280;65148;51.912;15.570;2023-09-19T10:38:24;101034.13;;;21.71;99.94
76331;BME280;65148;51.912;15.570;2023-09-19T11:08:59;101059.59;;;21.21;82.60
76331;BME280;65148;51.912;15.570;2023-09-19T11:24:32;101047.31;;;20.69;81.77
76331;BME280;65148;51.912;15.570;2023-09-19T11:39:38;101050.08;;;20.69;68.70
76331;BME280;65148;51.912;15.570;2023-09-19T11:54:40;101039.69;;;21.86;65.14
76331;BME280;65148;51.912;15.570;2023-09-19T12:10:08;101042.53;;;22.49;64.31
76331;BME280;65148;51.912;15.570;2023-09-19T12:25:15;101044.14;;;22.35;67.66
76331;BME280;65148;51.912;15.570;2023-09-19T12:40:21;101037.71;;;21.87;63.43
76331;BME280;65148;51.912;15.570;2023-09-19T12:55:46;101036.39;;;21.97;63.22
76331;BME280;65148;51.912;15.570;2023-09-19T13:26:02;101065.28;;;21.52;51.62
76331;BME280;65148;51.912;15.570;2023-09-19T13:41:24;101056.47;;;21.10;55.48
76331;BME280;65148;51.912;15.570;2023-09-19T13:56:26;101074.01;;;21.26;54.92
76331;BME280;65148;51.912;15.570;2023-09-19T14:11:32;101062.55;;;21.40;55.02
76331;BME280;65148;51.912;15.570;2023-09-19T14:26:33;101058.94;;;21.52;53.18
76331;BME280;65148;51.912;15.570;2023-09-19T14:41:47;101071.24;;;21.14;55.98
76331;BME280;65148;51.912;15.570;2023-09-19T14:56:48;101073.88;;;21.10;58.68
76331;BME280;65148;51.912;15.570;2023-09-19T15:11:58;101071.84;;;21.07;58.06
76331;BME280;65148;51.912;15.570;2023-09-19T15:27:24;101072.81;;;20.63;60.52
76331;BME280;65148;51.912;15.570;2023-09-19T15:42:25;101070.60;;;20.68;62.91
76331;BME280;65148;51.912;15.570;2023-09-19T15:57:26;101077.25;;;20.31;65.45
76331;BME280;65148;51.912;15.570;2023-09-19T16:12:29;101082.83;;;20.43;68.12
76331;BME280;65148;51.912;15.570;2023-09-19T16:27:46;101081.30;;;19.88;69.37
76331;BME280;65148;51.912;15.570;2023-09-19T16:42:47;101085.39;;;19.49;68.45
76331;BME280;65148;51.912;15.570;2023-09-19T16:57:48;101102.37;;;18.89;76.75
76331;BME280;65148;51.912;15.570;2023-09-19T17:12:49;101110.24;;;18.23;85.03
76331;BME280;65148;51.912;15.570;2023-09-19T17:28:07;101116.45;;;17.25;98.65
76331;BME280;65148;51.912;15.570;2023-09-19T17:43:08;101135.22;;;16.66;100.00
76331;BME280;65148;51.912;15.570;2023-09-19T17:58:09;101138.15;;;16.39;100.00
76331;BME280;65148;51.912;15.570;2023-09-19T18:13:10;101150.24;;;15.85;100.00
76331;BME280;65148;51.912;15.570;2023-09-19T18:28:29;101165.22;;;15.29;100.00
76331;BME280;65148;51.912;15.570;2023-09-19T18:43:30;101179.87;;;14.97;100.00
76331;BME280;65148;51.912;15.570;2023-09-19T18:58:31;101175.40;;;14.74;100.00
76331;BME280;65148;51.912;15.570;2023-09-19T19:13:32;101168.04;;;14.42;100.00
76331;BME280;65148;51.912;15.570;2023-09-19T19:28:52;101175.41;;;13.95;100.00
76331;BME280;65148;51.912;15.570;2023-09-19T19:43:53;101176.45;;;13.80;100.00
76331;BME280;65148;51.912;15.570;2023-09-19T19:58:55;101177.29;;;13.62;100.00
76331;BME280;65148;51.912;15.570;2023-09-19T20:13:56;101187.61;;;13.46;100.00
76331;BME280;65148;51.912;15.570;2023-09-19T20:29:15;101197.33;;;13.15;100.00
76331;BME280;65148;51.912;15.570;2023-09-19T20:44:17;101205.86;;;13.08;100.00
76331;BME280;65148;51.912;15.570;2023-09-19T20:59:21;101207.37;;;12.96;100.00
76331;BME280;65148;51.912;15.570;2023-09-19T21:14:55;101203.98;;;12.80;100.00
76331;BME280;65148;51.912;15.570;2023-09-19T21:30:01;101202.50;;;13.17;100.00
76331;BME280;65148;51.912;15.570;2023-09-19T21:45:05;101196.05;;;13.50;100.00
76331;BME280;65148;51.912;15.570;2023-09-19T22:00:35;101194.85;;;13.37;100.00
76331;BME280;65148;51.912;15.570;2023-09-19T22:15:40;101195.57;;;13.24;100.00
76331;BME280;65148;51.912;15.570;2023-09-19T22:30:42;101208.19;;;12.96;100.00
76331;BME280;65148;51.912;15.570;2023-09-19T22:46:15;101202.63;;;12.54;100.00
76331;BME280;65148;51.912;15.570;2023-09-19T23:01:20;101198.83;;;12.50;100.00
76331;BME280;65148;51.912;15.570;2023-09-19T23:16:27;101211.60;;;12.25;100.00
76331;BME280;65148;51.912;15.570;2023-09-19T23:31:54;101213.74;;;11.99;100.00
76331;BME280;65148;51.912;15.570;2023-09-19T23:46:56;101202.93;;;11.84;100.00
